Sunday, February 17, 2019, 2:24 PM CST
Back to Local

KMDW, Chicago Midway Airport

Location: Chicago, IL, United States Lat: 41.783
Local Time: 2:24 PM CST (20:24 GMT) Lon: -87.75
Time Zone: US/Central Elev: 620 ft

Show me the last for .
Show Decoded

2019-02-17 13:53 METAR KMDW 171953Z 08010KT 10SM OVC013 M02/M05 A2980 RMK AO2 SLP106 T10221050 $
                 =
2019-02-17 12:53 METAR KMDW 171853Z 09010KT 10SM OVC014 M02/M05 A2981 RMK AO2 SNE06 SLP110 P0000
                 T10221050 $ =
2019-02-17 11:53 METAR KMDW 171753Z 09011KT 7SM -SN OVC013 M02/M05 A2984 RMK AO2 SLP120 P0000
                 60001 T10221050 11022 21039 56016 $ =
2019-02-17 11:09 METAR KMDW 171709Z 09012G20KT 7SM -SN BKN014 BKN019 OVC060 M03/M05 A2986 RMK AO2
                 P0000 T10281050 $ =
2019-02-17 10:53 METAR KMDW 171653Z 09013KT 7SM -SN BKN015 BKN023 OVC060 M03/M05 A2987 RMK AO2
                 SLP127 P0000 T10281050 $ =
2019-02-17 10:40 METAR KMDW 171640Z 09013KT 2 1/2SM -SN BR BKN014 OVC023 M03/M05 A2986 RMK AO2
                 P0000 T10281050 $ =
2019-02-17 09:53 METAR KMDW 171553Z 09015G20KT 7SM -SN BKN010 BKN016 OVC060 M03/M06 A2986 RMK AO2
                 SLP126 P0000 T10281056 $ =
2019-02-17 09:36 METAR KMDW 171536Z 09010KT 2 1/2SM R31C/6000VP6000FT -SN BR SCT008 BKN011 OVC018
                 M03/M05 A2987 RMK AO2 P0000 T10281050 $ =
2019-02-17 09:22 METAR KMDW 171522Z 09010KT 1 1/2SM -SN BR SCT012 BKN025 OVC034 M03/M05 A2988 RMK
                 AO2 P0000 T10281050 $ =
2019-02-17 09:11 METAR KMDW 171511Z 09010KT 2 1/2SM -SN BR SCT012 BKN033 OVC050 M03/M06 A2988 RMK
                 AO2 P0000 T10331056 $ =
2019-02-17 08:53 METAR KMDW 171453Z 09012KT 3SM -SN BR SCT012 BKN025 OVC048 M03/M06 A2989 RMK AO2
                 SLP136 P0001 60001 T10331056 58001 $ =
2019-02-17 08:49 METAR KMDW 171449Z 09011KT 3SM -SN BR SCT012 BKN025 OVC048 M03/M06 A2989 RMK AO2
                 P0001 $ =
2019-02-17 08:05 METAR KMDW 171405Z 08010KT 1SM R31C/P6000FT -SN BKN014 BKN020 OVC025 M03/M06
                 A2989 RMK AO2 P0000 T10331061 $ =
2019-02-17 07:53 METAR KMDW 171353Z 09009KT 3SM -SN BKN014 BKN020 OVC025 M03/M06 A2989 RMK AO2
                 SLP137 P0000 T10331061 $ =
2019-02-17 07:46 METAR KMDW 171346Z 09006KT 2 1/2SM -SN BR BKN014 OVC025 M04/M06 A2990 RMK AO2
                 P0000 T10391061 $ =
2019-02-17 07:09 METAR KMDW 171309Z 10008KT 1 3/4SM -SN BKN017 OVC034 M04/M07 A2989 RMK AO2 P0000
                 T10391067 $ =
2019-02-17 06:53 METAR KMDW 171253Z 10012KT 7SM -SN BKN017 OVC048 M03/M07 A2989 RMK AO2 SLP137
                 P0000 T10331072 $ =
2019-02-17 05:53 METAR KMDW 171153Z 10012KT 8SM -SN BKN017 OVC060 M03/M07 A2992 RMK AO2 SNB48
                 SLP145 P0000 60000 T10331072 11033 21039 56012 $ =
2019-02-17 04:53 METAR KMDW 171053Z 09011KT 10SM OVC017 M03/M07 A2993 RMK AO2 SLP150 T10331072 $
                 =
2019-02-17 03:53 METAR KMDW 170953Z 10011KT 10SM OVC016 M03/M08 A2994 RMK AO2 SLP152 T10331078 $
                 =
2019-02-17 02:53 METAR KMDW 170853Z 10011KT 10SM OVC017 M04/M08 A2995 RMK AO2 SLP157 T10391078
                 58001 $ =
2019-02-17 01:53 METAR KMDW 170753Z 11010KT 10SM OVC019 M04/M08 A2997 RMK AO2 SLP161 T10391083 $
                 =
2019-02-17 00:53 METAR KMDW 170653Z 10009KT 10SM OVC019 M03/M08 A2999 RMK AO2 SLP168 T10331078 $
                 =
2019-02-16 23:53 METAR KMDW 170553Z 10013G22KT 10SM OVC019 M03/M08 A2996 RMK AO2 SLP158 60000
                 T10331083 11028 21039 410111078 58017 $ =
2019-02-16 22:53 METAR KMDW 170453Z 08013KT 10SM OVC020 M04/M08 A2998 RMK AO2 SLP166 T10391083 $
                 =
2019-02-16 21:53 METAR KMDW 170353Z 10011KT 10SM OVC022 M03/M08 A3002 RMK AO2 SLP179 T10281083 $
                 =
2019-02-16 20:53 METAR KMDW 170253Z 09012KT 10SM OVC021 M03/M08 A3001 RMK AO2 SLP177 60000
                 T10281078 58016 $ =
2019-02-16 19:53 METAR KMDW 170153Z 07009KT 10SM OVC021 M03/M08 A3004 RMK AO2 SLP188 T10331078 $
                 =
2019-02-16 18:53 METAR KMDW 170053Z 05011KT 10SM OVC022 M03/M08 A3008 RMK AO2 SNB06E23 SLP202
                 P0000 T10331083 $ =
2019-02-16 17:53 METAR KMDW 162353Z 09013KT 10SM OVC019 M03/M08 A3006 RMK AO2 SLP195 T10331078
                 11011 21033 55001 $ =
2019-02-16 16:53 METAR KMDW 162253Z 07012G19KT 10SM OVC020 M03/M07 A3005 RMK AO2 SLP193 T10281072
                 $ =
2019-02-16 15:53 METAR KMDW 162153Z 08010KT 10SM OVC022 M02/M07 A3005 RMK AO2 SLP192 T10221072 $
                 =
2019-02-16 14:53 METAR KMDW 162053Z 06009KT 10SM OVC023 M02/M07 A3006 RMK AO2 SLP195 T10171067
                 55017 $ =

Support USWX by starting your Amazon purchase here.